createdAt,value
2023-04-06T00:01:05.867Z,11.87
2023-04-06T00:03:33.133Z,12.07
2023-04-06T00:06:00.355Z,12.30
2023-04-06T00:08:28.639Z,12.20
2023-04-06T00:10:55.738Z,13.63
2023-04-06T00:13:22.834Z,13.90
2023-04-06T00:15:49.768Z,12.60
2023-04-06T00:18:16.742Z,14.20
2023-04-06T00:20:43.741Z,13.63
2023-04-06T00:23:10.788Z,14.03
2023-04-06T00:25:37.724Z,13.50
2023-04-06T00:28:04.815Z,14.00
2023-04-06T00:30:31.992Z,14.57
2023-04-06T00:32:59.068Z,14.50
2023-04-06T00:35:26.085Z,14.33
2023-04-06T00:37:53.461Z,13.97
2023-04-06T00:40:20.773Z,14.83
2023-04-06T00:42:47.677Z,14.27
2023-04-06T00:45:14.777Z,14.43
2023-04-06T00:47:42.110Z,13.63
2023-04-06T00:50:09.655Z,14.93
2023-04-06T00:52:37.060Z,14.27
2023-04-06T00:55:05.081Z,13.13
2023-04-06T00:57:33.078Z,14.47
2023-04-06T01:00:00.231Z,14.60
2023-04-06T01:02:27.480Z,13.63
2023-04-06T01:04:55.630Z,13.77
2023-04-06T01:07:22.746Z,13.10
2023-04-06T01:09:49.756Z,13.37
2023-04-06T01:12:16.560Z,13.27
2023-04-06T01:14:43.492Z,14.20
2023-04-06T01:17:10.484Z,12.63
2023-04-06T01:19:38.384Z,14.10
2023-04-06T01:22:05.775Z,12.93
2023-04-06T01:24:32.788Z,13.57
2023-04-06T01:26:59.759Z,13.40
2023-04-06T01:29:27.003Z,13.10
2023-04-06T01:31:54.348Z,13.00
2023-04-06T01:34:21.355Z,12.53
2023-04-06T01:36:48.338Z,13.10
2023-04-06T01:39:15.134Z,12.90
2023-04-06T01:41:42.392Z,12.90
2023-04-06T01:44:09.292Z,12.13
2023-04-06T01:46:36.806Z,12.30
2023-04-06T01:49:09.195Z,12.57
2023-04-06T01:51:36.561Z,12.33
2023-04-06T01:54:03.690Z,12.07
2023-04-06T01:56:30.811Z,12.87
2023-04-06T01:58:57.927Z,13.00
2023-04-06T02:01:25.162Z,13.97
2023-04-06T02:03:52.307Z,13.07
2023-04-06T02:06:19.352Z,13.37
2023-04-06T02:08:46.225Z,14.00
2023-04-06T02:11:13.347Z,14.87
2023-04-06T02:13:40.806Z,14.53
2023-04-06T02:16:08.122Z,15.17
2023-04-06T02:18:35.308Z,14.97
2023-04-06T02:21:02.572Z,14.40
2023-04-06T02:23:29.422Z,14.27
2023-04-06T02:25:56.394Z,15.37
2023-04-06T02:28:23.565Z,14.27
2023-04-06T02:30:50.674Z,14.23
2023-04-06T02:33:17.846Z,13.67
2023-04-06T02:35:46.499Z,14.50
2023-04-06T02:38:13.387Z,14.77
2023-04-06T02:40:40.129Z,15.67
2023-04-06T02:43:07.281Z,14.73
2023-04-06T02:45:34.073Z,15.20
2023-04-06T02:48:01.166Z,15.43
2023-04-06T02:50:28.172Z,16.23
2023-04-06T02:52:55.078Z,15.00
2023-04-06T02:55:22.574Z,15.63
2023-04-06T02:57:49.734Z,16.43
2023-04-06T03:00:16.930Z,15.70
2023-04-06T03:02:44.098Z,15.80
2023-04-06T03:05:11.216Z,15.87
2023-04-06T03:07:38.243Z,15.33
2023-04-06T03:10:05.768Z,14.17
2023-04-06T03:12:32.682Z,14.37
2023-04-06T03:14:59.644Z,13.43
2023-04-06T03:17:26.617Z,13.53
2023-04-06T03:19:53.633Z,13.83
2023-04-06T03:22:21.611Z,14.13
2023-04-06T03:24:48.934Z,13.10
2023-04-06T03:27:15.951Z,15.17
2023-04-06T03:29:43.116Z,14.03
2023-04-06T03:32:11.515Z,13.27
2023-04-06T03:34:40.271Z,12.83
2023-04-06T03:37:09.903Z,13.53
2023-04-06T03:39:37.490Z,12.77
2023-04-06T03:42:04.645Z,14.03
2023-04-06T03:44:31.603Z,13.17
2023-04-06T03:46:58.593Z,12.87
2023-04-06T03:49:25.747Z,13.30
2023-04-06T03:51:52.658Z,13.83
2023-04-06T03:54:19.468Z,13.73
2023-04-06T03:56:46.498Z,14.17
2023-04-06T03:59:13.367Z,14.07
2023-04-06T04:01:40.768Z,15.03
2023-04-06T04:04:09.886Z,16.17
2023-04-06T04:06:37.740Z,15.20
2023-04-06T04:09:04.797Z,15.47
2023-04-06T04:11:31.852Z,15.13
2023-04-06T04:13:58.906Z,15.27
2023-04-06T04:16:26.143Z,14.97
2023-04-06T04:18:53.184Z,14.43
2023-04-06T04:21:20.355Z,14.57
2023-04-06T04:23:47.259Z,16.03
2023-04-06T04:26:14.302Z,14.73
2023-04-06T04:28:41.412Z,14.77
2023-04-06T04:31:08.344Z,14.37
2023-04-06T04:33:35.190Z,14.53
2023-04-06T04:36:02.194Z,13.73
2023-04-06T04:38:29.333Z,14.47
2023-04-06T04:40:56.477Z,14.13
2023-04-06T04:43:23.406Z,13.93
2023-04-06T04:45:50.597Z,14.70
2023-04-06T04:48:17.679Z,14.47
2023-04-06T04:50:44.587Z,14.70
2023-04-06T04:53:11.571Z,14.30
2023-04-06T04:55:38.678Z,13.90
2023-04-06T04:58:05.679Z,15.87
2023-04-06T05:00:32.856Z,15.20
2023-04-06T05:02:59.850Z,15.43
2023-04-06T05:05:28.513Z,15.60
2023-04-06T05:07:55.494Z,14.27
2023-04-06T05:10:22.501Z,15.13
2023-04-06T05:12:49.459Z,14.70
2023-04-06T05:15:16.717Z,14.63
2023-04-06T05:17:43.963Z,14.60
2023-04-06T05:20:11.398Z,14.33
2023-04-06T05:22:38.376Z,14.60
2023-04-06T05:25:05.775Z,14.97
2023-04-06T05:27:32.978Z,14.83
2023-04-06T05:30:00.672Z,14.50
2023-04-06T05:32:28.908Z,16.03
2023-04-06T05:34:55.949Z,16.23
2023-04-06T05:37:23.096Z,17.70
2023-04-06T05:39:50.323Z,14.20
2023-04-06T05:42:17.960Z,14.83
2023-04-06T05:44:44.861Z,12.77
2023-04-06T05:47:11.921Z,14.33
2023-04-06T05:49:38.820Z,11.60
2023-04-06T05:52:06.246Z,11.87
2023-04-06T05:54:33.113Z,10.20
2023-04-06T05:57:00.124Z,10.10
2023-04-06T05:59:27.295Z,9.17
2023-04-06T06:01:54.455Z,13.90
2023-04-06T06:04:21.290Z,14.57
2023-04-06T06:06:48.168Z,9.27
2023-04-06T06:09:15.744Z,12.93
2023-04-06T06:11:43.207Z,8.70
2023-04-06T06:14:10.087Z,8.03
2023-04-06T06:16:37.251Z,8.37
2023-04-06T06:19:04.381Z,8.90
2023-04-06T06:21:32.543Z,7.87
2023-04-06T06:23:59.458Z,8.37
2023-04-06T06:26:26.510Z,8.27
2023-04-06T06:28:53.422Z,8.63
2023-04-06T06:31:23.723Z,8.03
2023-04-06T06:33:53.704Z,7.97
2023-04-06T06:36:20.925Z,8.00
2023-04-06T06:38:47.793Z,8.27
2023-04-06T06:41:14.790Z,9.30
2023-04-06T06:43:41.814Z,7.33
2023-04-06T06:46:09.123Z,7.80
2023-04-06T06:48:36.218Z,7.63
2023-04-06T06:51:03.076Z,7.37
2023-04-06T06:53:30.168Z,8.03
2023-04-06T06:55:57.575Z,7.63
2023-04-06T06:58:24.564Z,7.73
2023-04-06T07:00:51.636Z,7.60
2023-04-06T07:03:18.699Z,8.53
2023-04-06T07:05:54.124Z,7.97
2023-04-06T07:08:22.525Z,8.47
2023-04-06T07:10:52.300Z,7.90
2023-04-06T07:13:23.226Z,8.40
2023-04-06T07:15:53.153Z,8.20
2023-04-06T07:18:20.985Z,8.47
2023-04-06T07:20:48.237Z,7.90
2023-04-06T07:23:15.249Z,7.63
2023-04-06T07:25:42.447Z,7.60
2023-04-06T07:28:09.366Z,7.50
2023-04-06T07:30:39.049Z,8.07
2023-04-06T07:33:06.994Z,8.07
2023-04-06T07:35:34.359Z,7.90
2023-04-06T07:38:01.602Z,7.33
2023-04-06T07:40:28.531Z,7.40
2023-04-06T07:42:56.839Z,7.70
2023-04-06T07:45:25.093Z,7.67
2023-04-06T07:47:52.252Z,7.13
2023-04-06T07:50:19.358Z,7.40
2023-04-06T07:52:46.271Z,7.00
2023-04-06T07:55:13.360Z,5.80
2023-04-06T07:57:40.677Z,5.87
2023-04-06T08:00:10.576Z,5.77
2023-04-06T08:02:37.861Z,6.10
2023-04-06T08:05:05.115Z,5.40
2023-04-06T08:07:31.944Z,5.57
2023-04-06T08:09:58.942Z,5.60
2023-04-06T08:12:26.030Z,5.33
2023-04-06T08:14:53.018Z,5.40
2023-04-06T08:17:20.161Z,5.20
2023-04-06T08:19:49.883Z,5.30
2023-04-06T08:22:16.813Z,5.07
2023-04-06T08:24:43.805Z,5.37
2023-04-06T08:27:10.716Z,5.73
2023-04-06T08:29:37.748Z,5.00
2023-04-06T08:32:06.348Z,4.90
2023-04-06T08:34:36.342Z,4.87
2023-04-06T08:37:03.506Z,4.80
2023-04-06T08:39:31.958Z,4.77
2023-04-06T08:42:04.033Z,5.00
2023-04-06T08:44:33.153Z,4.40
2023-04-06T08:47:00.706Z,4.87
2023-04-06T08:49:28.877Z,4.67
2023-04-06T08:51:56.960Z,4.63
2023-04-06T08:54:23.937Z,4.70
2023-04-06T08:56:51.633Z,4.63
2023-04-06T08:59:18.857Z,4.80
2023-04-06T09:01:47.170Z,4.50
2023-04-06T09:04:14.527Z,4.20
2023-04-06T09:06:42.167Z,4.27
2023-04-06T09:09:09.772Z,4.20
2023-04-06T09:11:50.967Z,4.47
2023-04-06T09:14:18.736Z,4.50
2023-04-06T09:16:47.011Z,4.33
2023-04-06T09:19:14.147Z,4.93
2023-04-06T09:21:41.405Z,4.83
2023-04-06T09:24:12.177Z,4.57
2023-04-06T09:26:49.090Z,4.97
2023-04-06T09:29:28.799Z,4.80
2023-04-06T09:32:06.993Z,5.50
2023-04-06T09:34:35.492Z,5.17
2023-04-06T09:37:13.099Z,5.40
2023-04-06T09:39:40.048Z,5.57
2023-04-06T09:42:07.177Z,5.07
2023-04-06T09:44:34.192Z,5.40
2023-04-06T09:47:02.031Z,5.10
2023-04-06T09:49:31.799Z,5.33
2023-04-06T09:52:01.590Z,5.27
2023-04-06T09:54:31.063Z,5.40
2023-04-06T09:57:15.817Z,4.87
2023-04-06T09:59:53.673Z,5.77
2023-04-06T10:02:37.539Z,5.40
2023-04-06T10:05:09.453Z,5.00
2023-04-06T10:07:43.322Z,4.90
2023-04-06T10:10:15.701Z,5.07
2023-04-06T10:12:43.388Z,5.00
2023-04-06T10:15:10.918Z,5.07
2023-04-06T10:17:38.765Z,4.83
2023-04-06T10:20:12.729Z,5.40
2023-04-06T10:22:53.949Z,4.80
2023-04-06T10:25:34.761Z,5.07
2023-04-06T10:28:09.723Z,4.70
2023-04-06T10:30:42.841Z,4.40
2023-04-06T10:33:21.291Z,4.40
2023-04-06T10:35:48.707Z,4.80
2023-04-06T10:38:16.057Z,4.90
2023-04-06T10:40:48.340Z,5.03
2023-04-06T10:43:23.676Z,5.43
2023-04-06T10:45:58.314Z,5.20
2023-04-06T10:48:25.607Z,5.40
2023-04-06T10:50:54.313Z,4.90
2023-04-06T10:53:26.321Z,4.90
2023-04-06T10:55:57.543Z,4.50
2023-04-06T10:58:28.877Z,5.13
2023-04-06T11:00:57.145Z,4.90
2023-04-06T11:03:24.365Z,4.90
2023-04-06T11:05:52.846Z,5.23
2023-04-06T11:08:35.243Z,5.30
2023-04-06T11:11:09.781Z,5.60
2023-04-06T11:13:44.431Z,5.13
2023-04-06T11:16:18.978Z,5.63
2023-04-06T11:18:49.871Z,5.60
2023-04-06T11:21:16.735Z,6.70
2023-04-06T11:23:43.955Z,6.17
2023-04-06T11:26:15.179Z,5.90
2023-04-06T11:28:45.604Z,5.63
2023-04-06T11:31:12.936Z,6.67
2023-04-06T11:33:40.277Z,6.47
2023-04-06T11:36:08.130Z,6.83
2023-04-06T11:38:35.385Z,6.97
2023-04-06T11:41:04.969Z,6.67
2023-04-06T11:43:32.344Z,7.03
2023-04-06T11:46:03.795Z,6.90
2023-04-06T11:48:32.192Z,6.50
2023-04-06T11:51:02.464Z,7.10
2023-04-06T11:53:31.013Z,6.90
2023-04-06T11:55:58.218Z,6.77
2023-04-06T11:58:25.237Z,8.30
2023-04-06T12:00:52.317Z,8.93
2023-04-06T12:03:19.172Z,9.00
2023-04-06T12:05:46.387Z,8.60
2023-04-06T12:08:13.417Z,9.37
2023-04-06T12:10:40.653Z,9.47
2023-04-06T12:13:07.763Z,9.17
2023-04-06T12:15:34.617Z,8.73
2023-04-06T12:18:01.662Z,9.23
2023-04-06T12:20:28.777Z,8.57
2023-04-06T12:22:55.833Z,9.30
2023-04-06T12:25:22.849Z,9.53
2023-04-06T12:27:50.241Z,9.93
2023-04-06T12:30:18.645Z,9.73
2023-04-06T12:32:45.835Z,9.10
2023-04-06T12:35:21.829Z,9.90
2023-04-06T12:37:48.795Z,9.27
2023-04-06T12:40:16.211Z,9.93
2023-04-06T12:42:43.332Z,9.90
2023-04-06T12:45:10.909Z,9.50
2023-04-06T12:47:38.908Z,9.93
2023-04-06T12:50:07.326Z,9.40
2023-04-06T12:52:36.380Z,8.87
2023-04-06T12:55:04.500Z,8.90
2023-04-06T12:57:31.908Z,9.53
2023-04-06T12:59:59.126Z,9.67
2023-04-06T13:02:26.321Z,8.77
2023-04-06T13:04:53.305Z,9.77
2023-04-06T13:07:20.230Z,9.20
2023-04-06T13:09:48.587Z,8.43
2023-04-06T13:12:15.786Z,8.87
2023-04-06T13:14:42.784Z,9.40
2023-04-06T13:17:13.044Z,9.10
2023-04-06T13:19:39.945Z,9.20
2023-04-06T13:22:06.796Z,8.70
2023-04-06T13:24:33.863Z,9.40
2023-04-06T13:27:01.647Z,8.60
2023-04-06T13:29:31.457Z,8.60
2023-04-06T13:31:58.348Z,8.43
2023-04-06T13:34:25.450Z,7.60
2023-04-06T13:36:52.650Z,7.50
2023-04-06T13:39:19.777Z,7.47
2023-04-06T13:41:46.689Z,7.90
2023-04-06T13:44:13.642Z,8.20
2023-04-06T13:46:41.025Z,8.17
2023-04-06T13:49:07.859Z,8.07
2023-04-06T13:51:34.834Z,7.97
2023-04-06T13:54:01.698Z,9.03
2023-04-06T13:56:28.795Z,8.37
2023-04-06T13:58:57.553Z,7.77
2023-04-06T14:01:24.491Z,7.80
2023-04-06T14:03:51.808Z,8.00
2023-04-06T14:08:48.551Z,7.80
2023-04-06T14:11:18.368Z,8.57
2023-04-06T14:13:45.962Z,8.40
2023-04-06T14:16:16.578Z,7.40
2023-04-06T14:18:43.900Z,7.27
2023-04-06T14:21:11.114Z,7.40
2023-04-06T14:23:38.402Z,7.27
2023-04-06T14:26:06.554Z,7.60
2023-04-06T14:28:34.696Z,6.93
2023-04-06T14:31:13.238Z,6.80
2023-04-06T14:33:41.160Z,7.17
2023-04-06T14:36:10.441Z,7.70
2023-04-06T14:38:37.649Z,7.60
2023-04-06T14:41:04.899Z,7.17
2023-04-06T14:43:31.987Z,6.87
2023-04-06T14:46:03.150Z,7.63
2023-04-06T14:48:30.409Z,7.50
2023-04-06T14:50:57.670Z,7.20
2023-04-06T14:53:25.256Z,7.50
2023-04-06T14:55:55.888Z,7.40
2023-04-06T14:58:24.269Z,6.93
2023-04-06T15:00:57.423Z,7.43
2023-04-06T15:03:26.806Z,6.50
2023-04-06T15:05:54.888Z,6.30
2023-04-06T15:08:23.282Z,6.43
2023-04-06T15:10:51.833Z,6.40
2023-04-06T15:13:19.269Z,6.33
2023-04-06T15:15:46.311Z,7.47
2023-04-06T15:18:13.549Z,6.30
2023-04-06T15:20:41.783Z,7.60
2023-04-06T15:23:09.014Z,6.80
2023-04-06T15:25:35.912Z,6.97
2023-04-06T15:28:02.791Z,7.07
2023-04-06T15:30:29.876Z,6.80
2023-04-06T15:33:01.784Z,6.83
2023-04-06T15:35:30.005Z,6.40
2023-04-06T15:37:58.264Z,6.10
2023-04-06T15:40:26.356Z,5.73
2023-04-06T15:42:53.469Z,6.03
2023-04-06T15:45:20.393Z,5.90
2023-04-06T15:47:47.374Z,5.77
2023-04-06T15:50:14.661Z,5.93
2023-04-06T15:52:41.735Z,6.70
2023-04-06T15:55:09.380Z,6.00
2023-04-06T15:57:36.519Z,6.00
2023-04-06T16:00:05.132Z,5.87
2023-04-06T16:02:32.494Z,5.97
2023-04-06T16:05:03.170Z,5.80
2023-04-06T16:07:32.675Z,5.33
2023-04-06T16:09:59.750Z,6.00
2023-04-06T16:12:27.855Z,5.90
2023-04-06T16:14:56.312Z,5.90
2023-04-06T16:17:23.428Z,5.60
2023-04-06T16:19:50.382Z,5.70
2023-04-06T16:22:17.565Z,6.13
2023-04-06T16:24:44.564Z,5.60
2023-04-06T16:27:12.436Z,5.50
2023-04-06T16:29:39.564Z,6.17
2023-04-06T16:32:07.131Z,6.43
2023-04-06T16:34:34.829Z,6.63
2023-04-06T16:37:02.375Z,5.90
2023-04-06T16:39:29.440Z,6.50
2023-04-06T16:41:57.423Z,6.00
2023-04-06T16:44:28.566Z,6.23
2023-04-06T16:46:56.752Z,6.07
2023-04-06T16:49:24.378Z,6.33
2023-04-06T16:51:52.187Z,6.40
2023-04-06T16:54:19.407Z,6.30
2023-04-06T16:56:46.556Z,6.13
2023-04-06T16:59:13.634Z,6.23
2023-04-06T17:01:40.795Z,6.33
2023-04-06T17:04:08.190Z,5.83
2023-04-06T17:06:35.283Z,6.30
2023-04-06T17:09:02.328Z,6.57
2023-04-06T17:11:39.857Z,5.87
2023-04-06T17:14:13.352Z,6.43
2023-04-06T17:16:40.281Z,6.40
2023-04-06T17:19:07.833Z,6.10
2023-04-06T17:21:34.746Z,6.67
2023-04-06T17:24:01.940Z,5.83
2023-04-06T17:26:29.015Z,5.90
2023-04-06T17:28:56.087Z,7.00
2023-04-06T17:31:23.209Z,6.93
2023-04-06T17:33:50.694Z,7.20
2023-04-06T17:36:18.817Z,7.90
2023-04-06T17:38:47.316Z,8.20
2023-04-06T17:41:14.745Z,8.00
2023-04-06T17:43:42.431Z,7.50
2023-04-06T17:46:09.255Z,8.00
2023-04-06T17:48:36.438Z,8.50
2023-04-06T17:51:03.366Z,7.77
2023-04-06T17:53:34.763Z,8.20
2023-04-06T17:56:07.867Z,8.17
2023-04-06T17:58:35.544Z,8.23
2023-04-06T18:01:11.959Z,8.53
2023-04-06T18:03:41.502Z,8.23
2023-04-06T18:06:16.382Z,8.30
2023-04-06T18:08:43.661Z,8.50
2023-04-06T18:11:22.025Z,8.03
2023-04-06T18:13:49.783Z,8.10
2023-04-06T18:16:17.914Z,7.90
2023-04-06T18:18:44.942Z,8.47
2023-04-06T18:21:11.909Z,7.87
2023-04-06T18:23:38.824Z,8.77
2023-04-06T18:26:06.827Z,8.30
2023-04-06T18:28:34.361Z,8.73
2023-04-06T18:31:02.643Z,8.20
2023-04-06T18:33:30.257Z,8.63
2023-04-06T18:36:00.220Z,8.80
2023-04-06T18:38:27.140Z,8.63
2023-04-06T18:40:54.054Z,9.20
2023-04-06T18:43:21.263Z,8.77
2023-04-06T18:45:48.261Z,9.50
2023-04-06T18:48:15.208Z,9.00
2023-04-06T18:50:51.622Z,9.70
2023-04-06T18:53:18.537Z,9.10
2023-04-06T18:55:45.862Z,9.40
2023-04-06T18:58:12.802Z,9.07
2023-04-06T19:00:42.993Z,9.17
2023-04-06T19:03:10.455Z,9.37
2023-04-06T19:05:44.579Z,9.83
2023-04-06T19:08:12.776Z,10.47
2023-04-06T19:10:40.238Z,10.00
2023-04-06T19:13:07.503Z,10.20
2023-04-06T19:15:34.385Z,9.90
2023-04-06T19:18:01.500Z,9.67
2023-04-06T19:20:28.523Z,10.27
2023-04-06T19:25:27.225Z,10.43
2023-04-06T19:27:54.244Z,10.23
2023-04-06T19:30:21.432Z,10.60
2023-04-06T19:32:48.431Z,10.40
2023-04-06T19:35:15.569Z,10.27
2023-04-06T19:37:44.004Z,11.33
2023-04-06T19:40:11.309Z,10.43
2023-04-06T19:42:38.984Z,11.00
2023-04-06T19:45:07.296Z,10.90
2023-04-06T19:47:35.620Z,10.83
2023-04-06T19:50:04.377Z,10.57
2023-04-06T19:52:32.883Z,11.03
2023-04-06T19:55:00.691Z,10.40
2023-04-06T19:57:29.265Z,10.37
2023-04-06T19:59:59.756Z,10.43
2023-04-06T20:02:27.325Z,11.03
2023-04-06T20:04:54.536Z,10.73
2023-04-06T20:07:21.540Z,11.13
2023-04-06T20:09:48.638Z,11.73
2023-04-06T20:12:15.676Z,11.20
2023-04-06T20:14:42.540Z,11.40
2023-04-06T20:17:09.677Z,11.77
2023-04-06T20:19:36.648Z,12.03
2023-04-06T20:22:03.959Z,12.40
2023-04-06T20:24:31.714Z,11.80
2023-04-06T20:26:58.608Z,11.40
2023-04-06T20:29:26.055Z,12.07
2023-04-06T20:31:53.378Z,11.63
2023-04-06T20:34:20.639Z,12.30
2023-04-06T20:36:47.751Z,11.87
2023-04-06T20:39:14.681Z,12.23
2023-04-06T20:41:42.652Z,12.10
2023-04-06T20:44:12.619Z,11.47
2023-04-06T20:46:39.797Z,12.30
2023-04-06T20:49:06.766Z,12.07
2023-04-06T20:51:34.042Z,11.73
2023-04-06T20:54:01.713Z,11.73
2023-04-06T20:56:34.897Z,11.97
2023-04-06T20:59:05.188Z,12.53
2023-04-06T21:01:32.380Z,11.77
2023-04-06T21:04:00.659Z,12.00
2023-04-06T21:06:30.251Z,11.67
2023-04-06T21:09:00.896Z,11.53
2023-04-06T21:11:27.822Z,12.37
2023-04-06T21:13:54.702Z,10.97
2023-04-06T21:16:21.918Z,12.20
2023-04-06T21:18:48.845Z,12.53
2023-04-06T21:21:16.970Z,12.67
2023-04-06T21:23:43.809Z,11.97
2023-04-06T21:26:13.069Z,12.53
2023-04-06T21:28:39.905Z,13.03
2023-04-06T21:31:13.111Z,11.70
2023-04-06T21:33:40.132Z,11.60
2023-04-06T21:36:08.389Z,11.33
2023-04-06T21:38:35.507Z,11.47
2023-04-06T21:41:02.444Z,11.17
2023-04-06T21:43:29.309Z,11.70
2023-04-06T21:45:56.274Z,11.13
2023-04-06T21:48:23.387Z,12.10
2023-04-06T21:50:50.395Z,10.87
2023-04-06T21:53:17.506Z,12.07
2023-04-06T21:55:48.517Z,12.07
2023-04-06T21:58:16.034Z,11.87
2023-04-06T22:00:43.260Z,11.50
2023-04-06T22:03:10.947Z,11.63
2023-04-06T22:05:38.718Z,11.53
2023-04-06T22:08:06.122Z,11.67
2023-04-06T22:10:33.322Z,11.10
2023-04-06T22:13:00.385Z,12.37
2023-04-06T22:15:27.789Z,11.33
2023-04-06T22:17:54.903Z,10.93
2023-04-06T22:20:21.882Z,11.50
2023-04-06T22:22:49.003Z,11.20
2023-04-06T22:25:16.142Z,11.07
2023-04-06T22:27:43.174Z,11.60
2023-04-06T22:30:10.731Z,11.77
2023-04-06T22:32:37.744Z,11.00
2023-04-06T22:35:04.899Z,12.53
2023-04-06T22:37:31.955Z,11.57
2023-04-06T22:39:58.992Z,11.30
2023-04-06T22:42:26.512Z,11.50
2023-04-06T22:44:53.373Z,11.23
2023-04-06T22:47:20.330Z,12.20
2023-04-06T22:49:47.384Z,11.83
2023-04-06T22:52:14.268Z,11.57
2023-04-06T22:54:41.477Z,12.03
2023-04-06T22:57:08.372Z,12.37
2023-04-06T22:59:35.553Z,11.87
2023-04-06T23:02:02.644Z,12.70
2023-04-06T23:04:29.831Z,12.47
2023-04-06T23:06:56.727Z,13.07
2023-04-06T23:09:23.725Z,12.17
2023-04-06T23:11:50.658Z,11.67
2023-04-06T23:14:20.343Z,12.23
2023-04-06T23:16:47.216Z,13.17
2023-04-06T23:19:14.462Z,12.67
2023-04-06T23:21:41.524Z,12.60
2023-04-06T23:24:08.444Z,13.00
2023-04-06T23:26:37.112Z,12.87
2023-04-06T23:29:04.077Z,12.47
2023-04-06T23:31:31.370Z,12.57
2023-04-06T23:33:58.501Z,13.57
2023-04-06T23:36:26.290Z,13.37
2023-04-06T23:38:53.237Z,13.03
2023-04-06T23:41:20.317Z,12.30
2023-04-06T23:43:47.232Z,12.33
2023-04-06T23:46:17.744Z,13.23
2023-04-06T23:48:45.722Z,12.97
2023-04-06T23:51:12.802Z,12.20
2023-04-06T23:53:39.520Z,12.80
2023-04-06T23:56:06.779Z,13.30
2023-04-06T23:58:33.831Z,13.53
